Startpagina
METAR-TAF:

METAR-TAF

Vliegvelden :

Lublin, Polen

breedte: 51-13-55N, lengte: 22-41-25E, hoogte: 203 m

Actueel weer

Dit bericht is 30 minuten geleden gemaakt, om 01:00 UTC
Wind 8 kt uit het zuidzuidwesten
Temperatuur 20°C
Vochtigheid 78%
Druk 1011 hPa
Zicht 10 km of meer
geen wolken onder 1500 m en geen cumulonimbus

METAR: EPLB 060100Z 21008KT CAVOK 20/16 Q1011

Tijdstip: 03:30 (01:30 UTC)

Verwachting

Dit bericht is 2 uur en het 0 minuten geleden gemaakt, om 23:30 UTC
Verwachting geldig van 06 om 00 UTC tot 06 om 09 UTC
Wind 7 kt uit het zuidzuidwesten
Zicht 10 km of meer
geen wolken onder 1500 m en geen cumulonimbus

TAF: EPLB 052330Z 0600/0609 21007KT CAVOK

Waarnemingen en weersverwachtingen van meer dan 4000 vliegvelden (METAR en TAF).

De beschikbare stations zijn de gele en rode punten op de kaart.

Ga met uw muis naar het station om de naam te zien.

Klik dan om waarnemingen en weersverwachtingen te zien.

kaart wijzigen: klik op de groene knoppen met een zwart kruis om in te zoomen, op de groene knop met een streepje om uit te zoomen of op de groene pijlen voor aangrenzende kaarten.


METAR-TAF: